GEC8220 EDDF-MMSM
Flight info
| Callsign | GEC8220 |
|---|---|
| Flight time | N/A |
| Altitude | 32000 |
| Route | OBOKA2L OBOKA Z29 TORNU DCT BATAK DCT GALSO Q63 ERING L179 UGBET Q60 OKSAW DCT BIBPE DCT FELCA DCT FADZU DCT OFSOX DCT SLANY DCT TOBOR/M084F330 NATC ELSIR/N0478F340 DCT ALLEX Q822 AJJAY/N0476F360 Q822 ENE Q480 BEEKN Q439 FOXWD Q22 CATLN Q56 HRV/N0481F380 DCT TBD M345 KENGS M575 CLONN UM575 TAM UJ14 AVSUB/N0479F390 UJ47 JUCRO/N0482F380 DCT TOREO TOREO1B |
| Aircraft | B77L/H-SDE1E2E3FGHIJ2J3J4J5M1RWXY/LB1D1 |
Departure
| Time | N/A |
|---|---|
| Airport | Frankfurt Main Airport (EDDF) |
Arrival
| Time | 2026-05-06 22:16 |
|---|---|
| Airport | Felipe Ángeles International Airport (MMSM) |
| Time | Latitude | Longitude | Altitude | Speed | Heading |
|---|---|---|---|---|---|
| 2026-05-06 17:04 | 43.85415 | -69.14599 | 32905 ft | 426 kts | 249° |
| 2026-05-06 17:05 | 43.83308 | -69.22272 | 32913 ft | 426 kts | 249° |
| 2026-05-06 17:05 | 43.81193 | -69.29952 | 32922 ft | 428 kts | 249° |
| 2026-05-06 17:05 | 43.80126 | -69.33816 | 33227 ft | 429 kts | 249° |
| 2026-05-06 17:06 | 43.79064 | -69.37655 | 33704 ft | 426 kts | 249° |
| 2026-05-06 17:06 | 43.78010 | -69.41465 | 34185 ft | 422 kts | 249° |
| 2026-05-06 17:06 | 43.76962 | -69.45242 | 34658 ft | 418 kts | 249° |
| 2026-05-06 17:06 | 43.75928 | -69.48966 | 35112 ft | 414 kts | 249° |
| 2026-05-06 17:07 | 43.74911 | -69.52626 | 35495 ft | 411 kts | 250° |
| 2026-05-06 17:07 | 43.73885 | -69.56309 | 35813 ft | 410 kts | 250° |
| 2026-05-06 17:07 | 43.72853 | -69.60008 | 35830 ft | 413 kts | 250° |
| 2026-05-06 17:08 | 43.70727 | -69.67359 | 35874 ft | 411 kts | 249° |
| 2026-05-06 17:08 | 43.68569 | -69.74648 | 35885 ft | 409 kts | 249° |
| 2026-05-06 17:09 | 43.66420 | -69.81909 | 35882 ft | 407 kts | 249° |
| 2026-05-06 17:09 | 43.64282 | -69.89135 | 35878 ft | 406 kts | 249° |
| 2026-05-06 17:10 | 43.62141 | -69.96361 | 35855 ft | 406 kts | 248° |
| 2026-05-06 17:10 | 43.59998 | -70.03573 | 35849 ft | 406 kts | 248° |
| 2026-05-06 17:11 | 43.57845 | -70.10800 | 35847 ft | 407 kts | 248° |
| 2026-05-06 17:11 | 43.55701 | -70.17977 | 35845 ft | 408 kts | 248° |
| 2026-05-06 17:12 | 43.53531 | -70.25217 | 35855 ft | 408 kts | 248° |
| 2026-05-06 17:12 | 43.51358 | -70.32450 | 35845 ft | 409 kts | 248° |
| 2026-05-06 17:13 | 43.49178 | -70.39683 | 35841 ft | 409 kts | 248° |
| 2026-05-06 17:13 | 43.46990 | -70.46930 | 35838 ft | 410 kts | 248° |
| 2026-05-06 17:14 | 43.44798 | -70.54164 | 35838 ft | 410 kts | 248° |
| 2026-05-06 17:14 | 43.42254 | -70.61191 | 35819 ft | 411 kts | 241° |
| 2026-05-06 17:15 | 43.38981 | -70.67654 | 35841 ft | 413 kts | 234° |
| 2026-05-06 17:15 | 43.34961 | -70.73361 | 36064 ft | 419 kts | 225° |
| 2026-05-06 17:15 | 43.32672 | -70.75902 | 35951 ft | 428 kts | 220° |
| 2026-05-06 17:16 | 43.30219 | -70.78288 | 35915 ft | 437 kts | 215° |
| 2026-05-06 17:16 | 43.24863 | -70.82473 | 35827 ft | 445 kts | 212° |
| 2026-05-06 17:17 | 43.19442 | -70.86558 | 35805 ft | 445 kts | 212° |
| 2026-05-06 17:17 | 43.14076 | -70.90642 | 35803 ft | 443 kts | 213° |
| 2026-05-06 17:18 | 43.08708 | -70.94755 | 35802 ft | 441 kts | 213° |
| 2026-05-06 17:18 | 43.03360 | -70.98851 | 35815 ft | 440 kts | 213° |
| 2026-05-06 17:19 | 42.98025 | -71.02926 | 35819 ft | 439 kts | 213° |
| 2026-05-06 17:19 | 42.92686 | -71.06996 | 35842 ft | 440 kts | 213° |
| 2026-05-06 17:20 | 42.87205 | -71.10760 | 35842 ft | 442 kts | 209° |
| 2026-05-06 17:20 | 42.81633 | -71.14349 | 35832 ft | 443 kts | 209° |
| 2026-05-06 17:21 | 42.76062 | -71.17939 | 35837 ft | 444 kts | 209° |
| 2026-05-06 17:21 | 42.70478 | -71.21550 | 35844 ft | 444 kts | 209° |
| 2026-05-06 17:22 | 42.64889 | -71.25164 | 35857 ft | 445 kts | 209° |
| 2026-05-06 17:22 | 42.59278 | -71.28786 | 35841 ft | 447 kts | 209° |
| 2026-05-06 17:23 | 42.53648 | -71.32412 | 35827 ft | 448 kts | 209° |
| 2026-05-06 17:23 | 42.48020 | -71.36029 | 35827 ft | 447 kts | 209° |
| 2026-05-06 17:24 | 42.42405 | -71.39631 | 35827 ft | 447 kts | 209° |
| 2026-05-06 17:24 | 42.36787 | -71.43228 | 35839 ft | 446 kts | 209° |
| 2026-05-06 17:25 | 42.31204 | -71.46796 | 35857 ft | 447 kts | 209° |
| 2026-05-06 17:25 | 42.25580 | -71.50383 | 35865 ft | 447 kts | 209° |
| 2026-05-06 17:26 | 42.19974 | -71.54004 | 35854 ft | 445 kts | 210° |
| 2026-05-06 17:26 | 42.14455 | -71.57706 | 35705 ft | 438 kts | 214° |
| 2026-05-06 17:27 | 42.09084 | -71.61302 | 35834 ft | 426 kts | 214° |
| 2026-05-06 17:27 | 42.03773 | -71.64850 | 35888 ft | 427 kts | 214° |
| 2026-05-06 17:28 | 41.98425 | -71.68409 | 35893 ft | 429 kts | 214° |
| 2026-05-06 17:28 | 41.93056 | -71.71968 | 35885 ft | 431 kts | 214° |
| 2026-05-06 17:29 | 41.87666 | -71.75535 | 35892 ft | 432 kts | 214° |
| 2026-05-06 17:29 | 41.82556 | -71.79522 | 35888 ft | 421 kts | 226° |
| 2026-05-06 17:30 | 41.78519 | -71.85082 | 35886 ft | 413 kts | 237° |
| 2026-05-06 17:30 | 41.75544 | -71.91595 | 35888 ft | 410 kts | 244° |
| 2026-05-06 17:31 | 41.72709 | -71.98227 | 35891 ft | 411 kts | 244° |
| 2026-05-06 17:31 | 41.69844 | -72.04858 | 35908 ft | 411 kts | 244° |
| 2026-05-06 17:32 | 41.66958 | -72.11471 | 35887 ft | 412 kts | 244° |
| 2026-05-06 17:32 | 41.64059 | -72.18081 | 35902 ft | 411 kts | 244° |
| 2026-05-06 17:33 | 41.61167 | -72.24657 | 35883 ft | 410 kts | 244° |
| 2026-05-06 17:33 | 41.58274 | -72.31219 | 35884 ft | 409 kts | 244° |
| 2026-05-06 17:34 | 41.55405 | -72.37716 | 35910 ft | 408 kts | 244° |
| 2026-05-06 17:34 | 41.52523 | -72.44229 | 35915 ft | 407 kts | 244° |
| 2026-05-06 17:35 | 41.49640 | -72.50730 | 35904 ft | 406 kts | 244° |
| 2026-05-06 17:35 | 41.46760 | -72.57211 | 35919 ft | 405 kts | 244° |
| 2026-05-06 17:36 | 41.42441 | -72.66905 | 35918 ft | 405 kts | 244° |
| 2026-05-06 17:36 | 41.39559 | -72.73355 | 35891 ft | 405 kts | 244° |
| 2026-05-06 17:37 | 41.36673 | -72.79802 | 35912 ft | 405 kts | 245° |
| 2026-05-06 17:37 | 41.33788 | -72.86233 | 35908 ft | 405 kts | 245° |
| 2026-05-06 17:38 | 41.30891 | -72.92677 | 35912 ft | 405 kts | 245° |
| 2026-05-06 17:38 | 41.27920 | -72.99044 | 35905 ft | 407 kts | 242° |
| 2026-05-06 17:39 | 41.24698 | -73.05247 | 35890 ft | 407 kts | 242° |
| 2026-05-06 17:39 | 41.21471 | -73.11419 | 35893 ft | 406 kts | 242° |
| 2026-05-06 17:40 | 41.18802 | -73.16531 | 35896 ft | 405 kts | 242° |
| 2026-05-06 17:40 | 41.15073 | -73.23675 | 35898 ft | 404 kts | 242° |
| 2026-05-06 17:41 | 41.12393 | -73.28802 | 35897 ft | 403 kts | 242° |
| 2026-05-06 17:41 | 41.09200 | -73.34902 | 35889 ft | 402 kts | 242° |
| 2026-05-06 17:42 | 41.06008 | -73.40987 | 35870 ft | 401 kts | 242° |
| 2026-05-06 17:42 | 41.02833 | -73.47027 | 35878 ft | 401 kts | 242° |
| 2026-05-06 17:43 | 40.99632 | -73.53106 | 35866 ft | 401 kts | 242° |
| 2026-05-06 17:43 | 40.96465 | -73.59109 | 35864 ft | 400 kts | 242° |
| 2026-05-06 17:44 | 40.93279 | -73.65136 | 35864 ft | 399 kts | 243° |
| 2026-05-06 17:44 | 40.90096 | -73.71147 | 35865 ft | 399 kts | 242° |
| 2026-05-06 17:45 | 40.87320 | -73.76097 | 35861 ft | 404 kts | 238° |
| 2026-05-06 17:45 | 40.84785 | -73.79711 | 35866 ft | 408 kts | 234° |
| 2026-05-06 17:46 | 40.80476 | -73.84707 | 35875 ft | 415 kts | 229° |
| 2026-05-06 17:46 | 40.76008 | -73.89517 | 35869 ft | 415 kts | 229° |
| 2026-05-06 17:47 | 40.71547 | -73.94330 | 35871 ft | 414 kts | 230° |
| 2026-05-06 17:47 | 40.67096 | -73.99148 | 35874 ft | 414 kts | 230° |
| 2026-05-06 17:48 | 40.62654 | -74.03953 | 35874 ft | 414 kts | 230° |
| 2026-05-06 17:48 | 40.58235 | -74.08726 | 35877 ft | 413 kts | 230° |
| 2026-05-06 17:49 | 40.53787 | -74.13519 | 35876 ft | 413 kts | 230° |
| 2026-05-06 17:49 | 40.49349 | -74.18296 | 35865 ft | 412 kts | 230° |
| 2026-05-06 17:50 | 40.44917 | -74.23062 | 35855 ft | 412 kts | 230° |
| 2026-05-06 17:50 | 40.40484 | -74.27823 | 35875 ft | 411 kts | 230° |
| 2026-05-06 17:51 | 40.36054 | -74.32571 | 35877 ft | 411 kts | 230° |
| 2026-05-06 17:51 | 40.31617 | -74.37319 | 35874 ft | 411 kts | 230° |
| 2026-05-06 17:52 | 40.27186 | -74.42053 | 35875 ft | 411 kts | 230° |
| 2026-05-06 17:52 | 40.22752 | -74.46780 | 35858 ft | 411 kts | 230° |
| 2026-05-06 17:53 | 40.18580 | -74.51764 | 35865 ft | 400 kts | 237° |
| 2026-05-06 17:53 | 40.14880 | -74.57187 | 35868 ft | 400 kts | 237° |
| 2026-05-06 17:54 | 40.11144 | -74.62590 | 35873 ft | 401 kts | 237° |
| 2026-05-06 17:54 | 40.07391 | -74.68000 | 35870 ft | 402 kts | 237° |
| 2026-05-06 17:55 | 40.03489 | -74.73243 | 35872 ft | 410 kts | 232° |
| 2026-05-06 17:55 | 39.98917 | -74.77863 | 35886 ft | 420 kts | 226° |
| 2026-05-06 17:56 | 39.94129 | -74.82215 | 35874 ft | 419 kts | 226° |
| 2026-05-06 17:56 | 39.89409 | -74.86638 | 35871 ft | 413 kts | 230° |
| 2026-05-06 17:57 | 39.85106 | -74.91489 | 35879 ft | 408 kts | 232° |
| 2026-05-06 17:57 | 39.80819 | -74.96340 | 35879 ft | 408 kts | 232° |
| 2026-05-06 17:58 | 39.76526 | -75.01175 | 35882 ft | 408 kts | 231° |
| 2026-05-06 17:58 | 39.72235 | -75.05998 | 35885 ft | 408 kts | 232° |
| 2026-05-06 17:59 | 39.67930 | -75.10828 | 35883 ft | 409 kts | 231° |
| 2026-05-06 17:59 | 39.63753 | -75.15773 | 35882 ft | 405 kts | 234° |
| 2026-05-06 18:00 | 39.59684 | -75.20822 | 35898 ft | 405 kts | 234° |
| 2026-05-06 18:00 | 39.55600 | -75.25856 | 35887 ft | 405 kts | 234° |
| 2026-05-06 18:01 | 39.51497 | -75.30869 | 35892 ft | 405 kts | 233° |
| 2026-05-06 18:01 | 39.47392 | -75.35865 | 35889 ft | 405 kts | 233° |
| 2026-05-06 18:02 | 39.43277 | -75.40863 | 35886 ft | 405 kts | 233° |
| 2026-05-06 18:02 | 39.39174 | -75.45839 | 35883 ft | 405 kts | 233° |
| 2026-05-06 18:03 | 39.35067 | -75.50815 | 35890 ft | 405 kts | 233° |
| 2026-05-06 18:03 | 39.30978 | -75.55759 | 35882 ft | 405 kts | 233° |
| 2026-05-06 18:04 | 39.26850 | -75.60722 | 35876 ft | 405 kts | 233° |
| 2026-05-06 18:04 | 39.22725 | -75.65659 | 35874 ft | 405 kts | 233° |
| 2026-05-06 18:05 | 39.18599 | -75.70594 | 35872 ft | 405 kts | 233° |
| 2026-05-06 18:05 | 39.14466 | -75.75532 | 35871 ft | 405 kts | 233° |
| 2026-05-06 18:06 | 39.10335 | -75.80460 | 35879 ft | 405 kts | 233° |
| 2026-05-06 18:06 | 39.06203 | -75.85381 | 35879 ft | 405 kts | 233° |
| 2026-05-06 18:07 | 39.02063 | -75.90304 | 35889 ft | 405 kts | 233° |
| 2026-05-06 18:07 | 38.97913 | -75.95231 | 35899 ft | 406 kts | 232° |
| 2026-05-06 18:08 | 38.93712 | -76.00111 | 35901 ft | 409 kts | 231° |
| 2026-05-06 18:08 | 38.89351 | -76.04835 | 35911 ft | 411 kts | 230° |
| 2026-05-06 18:09 | 38.84997 | -76.09517 | 35898 ft | 411 kts | 230° |
| 2026-05-06 18:09 | 38.80625 | -76.14248 | 35899 ft | 411 kts | 230° |
| 2026-05-06 18:10 | 38.76232 | -76.19013 | 35902 ft | 411 kts | 230° |
| 2026-05-06 18:10 | 38.71893 | -76.23716 | 35903 ft | 411 kts | 230° |
| 2026-05-06 18:11 | 38.67516 | -76.28453 | 35899 ft | 412 kts | 230° |
| 2026-05-06 18:11 | 38.63136 | -76.33186 | 35905 ft | 412 kts | 230° |
| 2026-05-06 18:12 | 38.58760 | -76.37905 | 35904 ft | 412 kts | 230° |
| 2026-05-06 18:12 | 38.54364 | -76.42639 | 35911 ft | 413 kts | 230° |
| 2026-05-06 18:13 | 38.49966 | -76.47367 | 35919 ft | 414 kts | 229° |
| 2026-05-06 18:13 | 38.45558 | -76.52100 | 35918 ft | 415 kts | 229° |
| 2026-05-06 18:14 | 38.41137 | -76.56843 | 35933 ft | 415 kts | 229° |
| 2026-05-06 18:14 | 38.36737 | -76.61628 | 35913 ft | 417 kts | 230° |
| 2026-05-06 18:15 | 38.32323 | -76.66431 | 35926 ft | 417 kts | 229° |
| 2026-05-06 18:15 | 38.27898 | -76.71229 | 35918 ft | 418 kts | 229° |
| 2026-05-06 18:16 | 38.23230 | -76.75731 | 35908 ft | 427 kts | 222° |
| 2026-05-06 18:16 | 38.17992 | -76.79476 | 35914 ft | 433 kts | 219° |
| 2026-05-06 18:17 | 38.12704 | -76.83142 | 35915 ft | 432 kts | 219° |
| 2026-05-06 18:17 | 38.07439 | -76.86811 | 35927 ft | 432 kts | 219° |
| 2026-05-06 18:18 | 38.02166 | -76.90491 | 35933 ft | 433 kts | 219° |
| 2026-05-06 18:18 | 37.96877 | -76.94178 | 35935 ft | 433 kts | 219° |
| 2026-05-06 18:19 | 37.91593 | -76.97854 | 35934 ft | 434 kts | 219° |
| 2026-05-06 18:19 | 37.86293 | -77.01537 | 35941 ft | 435 kts | 219° |
| 2026-05-06 18:20 | 37.81010 | -77.05202 | 35921 ft | 437 kts | 218° |
| 2026-05-06 18:20 | 37.75677 | -77.08893 | 35928 ft | 437 kts | 218° |
| 2026-05-06 18:21 | 37.70750 | -77.13119 | 35937 ft | 419 kts | 232° |
| 2026-05-06 18:21 | 37.66976 | -77.18617 | 35947 ft | 411 kts | 243° |
| 2026-05-06 18:22 | 37.64199 | -77.24893 | 35948 ft | 410 kts | 248° |
| 2026-05-06 18:22 | 37.61498 | -77.31257 | 35944 ft | 412 kts | 247° |
| 2026-05-06 18:23 | 37.58766 | -77.37609 | 35942 ft | 412 kts | 247° |
| 2026-05-06 18:23 | 37.56023 | -77.43929 | 35943 ft | 411 kts | 247° |
| 2026-05-06 18:24 | 37.53268 | -77.50248 | 35961 ft | 410 kts | 247° |
| 2026-05-06 18:24 | 37.50540 | -77.56497 | 35954 ft | 409 kts | 247° |
| 2026-05-06 18:25 | 37.47799 | -77.62764 | 35959 ft | 408 kts | 247° |
| 2026-05-06 18:25 | 37.45060 | -77.69016 | 35960 ft | 407 kts | 247° |
| 2026-05-06 18:26 | 37.42782 | -77.74207 | 35957 ft | 407 kts | 247° |
| 2026-05-06 18:26 | 37.40026 | -77.80475 | 35956 ft | 407 kts | 247° |
| 2026-05-06 18:27 | 37.37290 | -77.86702 | 35947 ft | 407 kts | 247° |
| 2026-05-06 18:27 | 37.34577 | -77.92888 | 35948 ft | 407 kts | 247° |
| 2026-05-06 18:28 | 37.31843 | -77.99110 | 35952 ft | 407 kts | 247° |
| 2026-05-06 18:28 | 37.29108 | -78.05321 | 35951 ft | 407 kts | 247° |
| 2026-05-06 18:29 | 37.26369 | -78.11530 | 35960 ft | 407 kts | 247° |
| 2026-05-06 18:29 | 37.23623 | -78.17747 | 35954 ft | 407 kts | 247° |
| 2026-05-06 18:30 | 37.20865 | -78.23972 | 35936 ft | 408 kts | 247° |
| 2026-05-06 18:30 | 37.17747 | -78.29970 | 35937 ft | 413 kts | 242° |
| 2026-05-06 18:31 | 37.14428 | -78.35867 | 35933 ft | 413 kts | 242° |
| 2026-05-06 18:31 | 37.11126 | -78.41752 | 35954 ft | 413 kts | 243° |
| 2026-05-06 18:32 | 37.07827 | -78.47638 | 35933 ft | 413 kts | 243° |
| 2026-05-06 18:32 | 37.04547 | -78.53480 | 35976 ft | 412 kts | 243° |
| 2026-05-06 18:33 | 37.01241 | -78.59359 | 35977 ft | 412 kts | 243° |
| 2026-05-06 18:33 | 36.97937 | -78.65226 | 35954 ft | 412 kts | 243° |
| 2026-05-06 18:34 | 36.94642 | -78.71062 | 35976 ft | 411 kts | 243° |
| 2026-05-06 18:34 | 36.91344 | -78.76899 | 35968 ft | 411 kts | 243° |
| 2026-05-06 18:35 | 36.88047 | -78.82721 | 35970 ft | 410 kts | 243° |
| 2026-05-06 18:35 | 36.84775 | -78.88492 | 35966 ft | 409 kts | 242° |
| 2026-05-06 18:36 | 36.81478 | -78.94289 | 35965 ft | 409 kts | 242° |
| 2026-05-06 18:36 | 36.78162 | -79.00070 | 35961 ft | 409 kts | 242° |
| 2026-05-06 18:37 | 36.74845 | -79.05835 | 35981 ft | 409 kts | 242° |
| 2026-05-06 18:37 | 36.71527 | -79.11599 | 35982 ft | 409 kts | 242° |
| 2026-05-06 18:38 | 36.68201 | -79.17370 | 35997 ft | 410 kts | 242° |
| 2026-05-06 18:38 | 36.64871 | -79.23138 | 36006 ft | 410 kts | 242° |
| 2026-05-06 18:39 | 36.61533 | -79.28910 | 36007 ft | 411 kts | 242° |
| 2026-05-06 18:40 | 36.56515 | -79.37572 | 36013 ft | 411 kts | 242° |
| 2026-05-06 18:40 | 36.53184 | -79.43308 | 36003 ft | 412 kts | 242° |
| 2026-05-06 18:41 | 36.49800 | -79.49125 | 36006 ft | 412 kts | 242° |
| 2026-05-06 18:41 | 36.46465 | -79.54850 | 35993 ft | 412 kts | 242° |
| 2026-05-06 18:42 | 36.43096 | -79.60622 | 35979 ft | 412 kts | 242° |
| 2026-05-06 18:42 | 36.39733 | -79.66375 | 35984 ft | 412 kts | 242° |
| 2026-05-06 18:43 | 36.36360 | -79.72132 | 35989 ft | 412 kts | 242° |
| 2026-05-06 18:43 | 36.33131 | -79.77638 | 35986 ft | 412 kts | 242° |
| 2026-05-06 18:44 | 36.29756 | -79.83382 | 35951 ft | 412 kts | 242° |
| 2026-05-06 18:44 | 36.26388 | -79.89106 | 35996 ft | 411 kts | 242° |
| 2026-05-06 18:45 | 36.23015 | -79.94829 | 36000 ft | 412 kts | 242° |
| 2026-05-06 18:45 | 36.19634 | -80.00557 | 36004 ft | 412 kts | 242° |
| 2026-05-06 18:46 | 36.16248 | -80.06286 | 36007 ft | 411 kts | 242° |
| 2026-05-06 18:46 | 36.12873 | -80.12012 | 36000 ft | 412 kts | 242° |
| 2026-05-06 18:47 | 36.09501 | -80.17731 | 35990 ft | 412 kts | 242° |
| 2026-05-06 18:47 | 36.06114 | -80.23459 | 35994 ft | 412 kts | 242° |
| 2026-05-06 18:48 | 36.02724 | -80.29185 | 35989 ft | 412 kts | 242° |
| 2026-05-06 18:48 | 35.99338 | -80.34897 | 35988 ft | 412 kts | 242° |
| 2026-05-06 18:49 | 35.95945 | -80.40604 | 35991 ft | 412 kts | 242° |
| 2026-05-06 18:49 | 35.92566 | -80.46259 | 35989 ft | 412 kts | 242° |
| 2026-05-06 18:50 | 35.89171 | -80.51933 | 35993 ft | 411 kts | 242° |
| 2026-05-06 18:50 | 35.85773 | -80.57605 | 35984 ft | 411 kts | 242° |
| 2026-05-06 18:51 | 35.82371 | -80.63277 | 35981 ft | 412 kts | 242° |
| 2026-05-06 18:51 | 35.78968 | -80.68940 | 35979 ft | 411 kts | 242° |
| 2026-05-06 18:52 | 35.75564 | -80.74595 | 35989 ft | 411 kts | 242° |
| 2026-05-06 18:52 | 35.72164 | -80.80236 | 35994 ft | 410 kts | 242° |
| 2026-05-06 18:53 | 35.68752 | -80.85887 | 36005 ft | 411 kts | 242° |
| 2026-05-06 18:53 | 35.65339 | -80.91533 | 35994 ft | 412 kts | 242° |
| 2026-05-06 18:54 | 35.61916 | -80.97186 | 35990 ft | 413 kts | 242° |
| 2026-05-06 18:54 | 35.58482 | -81.02845 | 35996 ft | 413 kts | 242° |
| 2026-05-06 18:55 | 35.55066 | -81.08468 | 35995 ft | 413 kts | 242° |
| 2026-05-06 18:55 | 35.51634 | -81.14112 | 35992 ft | 413 kts | 242° |
| 2026-05-06 18:56 | 35.48199 | -81.19755 | 36000 ft | 413 kts | 242° |
| 2026-05-06 18:56 | 35.44753 | -81.25408 | 36004 ft | 414 kts | 241° |
| 2026-05-06 18:57 | 35.41297 | -81.31068 | 35995 ft | 415 kts | 241° |
| 2026-05-06 18:57 | 35.37831 | -81.36734 | 35997 ft | 415 kts | 241° |
| 2026-05-06 18:58 | 35.34360 | -81.42399 | 36002 ft | 416 kts | 241° |
| 2026-05-06 18:58 | 35.30880 | -81.48070 | 35998 ft | 416 kts | 241° |
| 2026-05-06 18:59 | 35.27420 | -81.53701 | 36008 ft | 416 kts | 241° |
| 2026-05-06 18:59 | 35.23938 | -81.59354 | 36007 ft | 416 kts | 241° |
| 2026-05-06 19:00 | 35.20460 | -81.64995 | 36008 ft | 415 kts | 241° |
| 2026-05-06 19:00 | 35.16978 | -81.70632 | 36005 ft | 415 kts | 241° |
| 2026-05-06 19:01 | 35.13503 | -81.76253 | 36015 ft | 416 kts | 241° |
| 2026-05-06 19:01 | 35.10010 | -81.81892 | 36010 ft | 417 kts | 240° |
| 2026-05-06 19:02 | 35.06510 | -81.87532 | 36009 ft | 415 kts | 240° |
| 2026-05-06 19:02 | 35.03029 | -81.93136 | 36013 ft | 413 kts | 241° |
| 2026-05-06 19:03 | 34.99674 | -81.98783 | 36015 ft | 410 kts | 242° |
| 2026-05-06 19:03 | 34.96374 | -82.04457 | 36016 ft | 410 kts | 242° |
| 2026-05-06 19:04 | 34.93091 | -82.10078 | 36024 ft | 410 kts | 242° |
| 2026-05-06 19:04 | 34.89754 | -82.15763 | 36026 ft | 411 kts | 242° |
| 2026-05-06 19:05 | 34.86438 | -82.21393 | 36031 ft | 411 kts | 242° |
| 2026-05-06 19:05 | 34.83095 | -82.27056 | 36025 ft | 413 kts | 242° |
| 2026-05-06 19:06 | 34.79737 | -82.32733 | 36032 ft | 413 kts | 242° |
| 2026-05-06 19:06 | 34.76374 | -82.38411 | 36037 ft | 414 kts | 242° |
| 2026-05-06 19:07 | 34.73002 | -82.44095 | 36037 ft | 415 kts | 242° |
| 2026-05-06 19:07 | 34.69622 | -82.49783 | 36032 ft | 415 kts | 242° |
| 2026-05-06 19:08 | 34.66234 | -82.55476 | 36033 ft | 415 kts | 242° |
| 2026-05-06 19:08 | 34.62852 | -82.61149 | 36027 ft | 415 kts | 242° |
| 2026-05-06 19:09 | 34.59493 | -82.66775 | 36023 ft | 414 kts | 242° |
| 2026-05-06 19:09 | 34.56117 | -82.72420 | 36024 ft | 413 kts | 242° |
| 2026-05-06 19:10 | 34.52740 | -82.78059 | 36021 ft | 413 kts | 242° |
| 2026-05-06 19:10 | 34.49362 | -82.83691 | 36024 ft | 412 kts | 242° |
| 2026-05-06 19:11 | 34.45984 | -82.89313 | 36024 ft | 412 kts | 242° |
| 2026-05-06 19:11 | 34.42612 | -82.94918 | 36024 ft | 411 kts | 242° |
| 2026-05-06 19:12 | 34.39238 | -83.00516 | 36024 ft | 412 kts | 242° |
| 2026-05-06 19:12 | 34.35858 | -83.06116 | 36037 ft | 412 kts | 242° |
| 2026-05-06 19:13 | 34.32470 | -83.11722 | 36032 ft | 413 kts | 242° |
| 2026-05-06 19:13 | 34.29097 | -83.17292 | 36028 ft | 413 kts | 242° |
| 2026-05-06 19:14 | 34.25692 | -83.22907 | 36028 ft | 414 kts | 242° |
| 2026-05-06 19:14 | 34.22280 | -83.28524 | 36035 ft | 414 kts | 242° |
| 2026-05-06 19:15 | 34.18865 | -83.34139 | 36033 ft | 415 kts | 242° |
| 2026-05-06 19:15 | 34.16018 | -83.38812 | 36032 ft | 415 kts | 242° |
| 2026-05-06 19:16 | 34.12590 | -83.44431 | 36037 ft | 415 kts | 242° |
| 2026-05-06 19:16 | 34.09169 | -83.50028 | 36034 ft | 415 kts | 242° |
| 2026-05-06 19:17 | 34.05745 | -83.55624 | 36040 ft | 414 kts | 242° |
| 2026-05-06 19:17 | 34.02318 | -83.61217 | 36053 ft | 414 kts | 242° |
| 2026-05-06 19:18 | 33.98899 | -83.66787 | 36053 ft | 413 kts | 242° |
| 2026-05-06 19:18 | 33.95478 | -83.72353 | 36054 ft | 413 kts | 242° |
| 2026-05-06 19:19 | 33.92079 | -83.77877 | 36052 ft | 413 kts | 242° |
| 2026-05-06 19:19 | 33.88643 | -83.83421 | 36041 ft | 414 kts | 240° |
| 2026-05-06 19:20 | 33.85067 | -83.88904 | 36042 ft | 414 kts | 240° |
| 2026-05-06 19:20 | 33.81475 | -83.94331 | 36041 ft | 415 kts | 239° |
| 2026-05-06 19:21 | 33.77913 | -83.99729 | 36027 ft | 415 kts | 239° |
| 2026-05-06 19:21 | 33.74330 | -84.05168 | 36028 ft | 415 kts | 239° |
| 2026-05-06 19:22 | 33.70748 | -84.10606 | 36020 ft | 415 kts | 239° |
| 2026-05-06 19:22 | 33.67162 | -84.16044 | 36027 ft | 415 kts | 239° |
| 2026-05-06 19:23 | 33.63573 | -84.21478 | 36036 ft | 416 kts | 239° |
| 2026-05-06 19:23 | 33.59977 | -84.26914 | 36042 ft | 416 kts | 239° |
| 2026-05-06 19:24 | 33.56381 | -84.32342 | 36038 ft | 416 kts | 239° |
| 2026-05-06 19:24 | 33.52777 | -84.37774 | 36041 ft | 416 kts | 239° |
| 2026-05-06 19:25 | 33.49191 | -84.43172 | 36073 ft | 416 kts | 239° |
| 2026-05-06 19:25 | 33.45561 | -84.48626 | 36044 ft | 416 kts | 239° |
| 2026-05-06 19:26 | 33.41951 | -84.54042 | 36042 ft | 416 kts | 239° |
| 2026-05-06 19:26 | 33.38332 | -84.59464 | 36043 ft | 416 kts | 239° |
| 2026-05-06 19:27 | 33.34718 | -84.64871 | 36043 ft | 416 kts | 239° |
| 2026-05-06 19:27 | 33.31124 | -84.70239 | 36059 ft | 416 kts | 239° |
| 2026-05-06 19:28 | 33.27499 | -84.75648 | 36049 ft | 417 kts | 239° |
| 2026-05-06 19:28 | 33.23867 | -84.81057 | 36061 ft | 417 kts | 238° |
| 2026-05-06 19:29 | 33.20229 | -84.86467 | 36049 ft | 418 kts | 238° |
| 2026-05-06 19:29 | 33.16590 | -84.91873 | 36045 ft | 418 kts | 238° |
| 2026-05-06 19:30 | 33.12933 | -84.97297 | 36051 ft | 420 kts | 238° |
| 2026-05-06 19:30 | 33.09280 | -85.02707 | 36062 ft | 422 kts | 238° |
| 2026-05-06 19:31 | 33.05589 | -85.08163 | 36047 ft | 422 kts | 238° |
| 2026-05-06 19:31 | 33.00044 | -85.16343 | 36053 ft | 423 kts | 238° |
| 2026-05-06 19:32 | 32.96346 | -85.21792 | 36048 ft | 423 kts | 238° |
| 2026-05-06 19:32 | 32.92672 | -85.27196 | 36040 ft | 423 kts | 238° |
| 2026-05-06 19:33 | 32.88967 | -85.32637 | 36033 ft | 423 kts | 238° |
| 2026-05-06 19:33 | 32.85261 | -85.38072 | 36041 ft | 423 kts | 238° |
| 2026-05-06 19:34 | 32.81547 | -85.43511 | 36050 ft | 423 kts | 238° |
| 2026-05-06 19:34 | 32.77832 | -85.48944 | 36060 ft | 423 kts | 238° |
| 2026-05-06 19:35 | 32.74120 | -85.54362 | 36060 ft | 423 kts | 238° |
| 2026-05-06 19:35 | 32.70398 | -85.59790 | 36058 ft | 423 kts | 237° |
| 2026-05-06 19:36 | 32.66681 | -85.65202 | 36054 ft | 423 kts | 237° |
| 2026-05-06 19:36 | 32.62951 | -85.70624 | 36040 ft | 424 kts | 237° |
| 2026-05-06 19:37 | 32.59242 | -85.76006 | 36039 ft | 424 kts | 237° |
| 2026-05-06 19:37 | 32.55514 | -85.81410 | 36020 ft | 423 kts | 237° |
| 2026-05-06 19:38 | 32.51786 | -85.86807 | 36018 ft | 423 kts | 237° |
| 2026-05-06 19:38 | 32.48053 | -85.92203 | 36011 ft | 422 kts | 237° |
| 2026-05-06 19:39 | 32.44334 | -85.97569 | 36023 ft | 422 kts | 237° |
| 2026-05-06 19:39 | 32.40609 | -86.02937 | 36006 ft | 421 kts | 237° |
| 2026-05-06 19:40 | 32.36887 | -86.08295 | 36011 ft | 421 kts | 237° |
| 2026-05-06 19:40 | 32.33161 | -86.13650 | 36011 ft | 422 kts | 237° |
| 2026-05-06 19:41 | 32.29431 | -86.19002 | 36010 ft | 422 kts | 237° |
| 2026-05-06 19:41 | 32.25720 | -86.24320 | 36031 ft | 422 kts | 237° |
| 2026-05-06 19:42 | 32.21977 | -86.29676 | 36030 ft | 423 kts | 237° |
| 2026-05-06 19:42 | 32.18233 | -86.35025 | 36031 ft | 423 kts | 237° |
| 2026-05-06 19:43 | 32.14482 | -86.40377 | 36033 ft | 423 kts | 237° |
| 2026-05-06 19:43 | 32.10740 | -86.45709 | 36028 ft | 422 kts | 237° |
| 2026-05-06 19:44 | 32.06986 | -86.51051 | 36019 ft | 423 kts | 237° |
| 2026-05-06 19:44 | 32.03229 | -86.56388 | 36018 ft | 423 kts | 237° |
| 2026-05-06 19:45 | 31.99464 | -86.61730 | 36018 ft | 424 kts | 237° |
| 2026-05-06 19:45 | 31.95714 | -86.67043 | 36016 ft | 425 kts | 236° |
| 2026-05-06 19:46 | 31.91933 | -86.72394 | 36019 ft | 425 kts | 236° |
| 2026-05-06 19:46 | 31.88144 | -86.77746 | 36013 ft | 426 kts | 236° |
| 2026-05-06 19:47 | 31.84343 | -86.83109 | 36009 ft | 427 kts | 236° |
| 2026-05-06 19:47 | 31.80526 | -86.88486 | 36010 ft | 428 kts | 236° |
| 2026-05-06 19:48 | 31.76705 | -86.93862 | 36005 ft | 429 kts | 236° |
| 2026-05-06 19:48 | 31.72870 | -86.99249 | 36000 ft | 430 kts | 236° |
| 2026-05-06 19:49 | 31.69023 | -87.04645 | 36019 ft | 430 kts | 236° |
| 2026-05-06 19:49 | 31.65180 | -87.10029 | 36022 ft | 431 kts | 236° |
| 2026-05-06 19:50 | 31.61344 | -87.15395 | 36019 ft | 431 kts | 236° |
| 2026-05-06 19:50 | 31.57485 | -87.20785 | 36017 ft | 432 kts | 236° |
| 2026-05-06 19:51 | 31.53613 | -87.26186 | 36020 ft | 433 kts | 236° |
| 2026-05-06 19:51 | 31.49738 | -87.31583 | 36013 ft | 433 kts | 236° |
| 2026-05-06 19:52 | 31.45854 | -87.36986 | 36007 ft | 433 kts | 236° |
| 2026-05-06 19:52 | 31.41967 | -87.42387 | 36004 ft | 433 kts | 236° |
| 2026-05-06 19:53 | 31.38072 | -87.47790 | 36000 ft | 434 kts | 236° |
| 2026-05-06 19:53 | 31.34179 | -87.53185 | 35999 ft | 434 kts | 236° |
| 2026-05-06 19:54 | 31.30276 | -87.58581 | 35996 ft | 434 kts | 235° |
| 2026-05-06 19:54 | 31.26334 | -87.63932 | 35997 ft | 434 kts | 235° |
| 2026-05-06 19:55 | 31.22399 | -87.69230 | 35999 ft | 434 kts | 235° |
| 2026-05-06 19:55 | 31.18439 | -87.74562 | 35999 ft | 434 kts | 235° |
| 2026-05-06 19:56 | 31.14489 | -87.79884 | 35998 ft | 434 kts | 235° |
| 2026-05-06 19:56 | 31.10526 | -87.85218 | 36004 ft | 434 kts | 235° |
| 2026-05-06 19:57 | 31.06567 | -87.90539 | 36001 ft | 434 kts | 235° |
| 2026-05-06 19:57 | 31.02601 | -87.95863 | 36016 ft | 434 kts | 235° |
| 2026-05-06 19:58 | 30.98646 | -88.01163 | 36011 ft | 434 kts | 235° |
| 2026-05-06 19:58 | 30.94674 | -88.06479 | 36016 ft | 434 kts | 235° |
| 2026-05-06 19:59 | 30.90738 | -88.11741 | 36025 ft | 434 kts | 235° |
| 2026-05-06 19:59 | 30.86770 | -88.17038 | 36038 ft | 434 kts | 235° |
| 2026-05-06 20:00 | 30.82796 | -88.22336 | 36033 ft | 435 kts | 235° |
| 2026-05-06 20:00 | 30.78818 | -88.27634 | 36040 ft | 434 kts | 235° |
| 2026-05-06 20:01 | 30.74841 | -88.32921 | 36043 ft | 434 kts | 235° |
| 2026-05-06 20:01 | 30.71211 | -88.38447 | 36040 ft | 426 kts | 243° |
| 2026-05-06 20:02 | 30.68167 | -88.44330 | 36042 ft | 425 kts | 244° |
| 2026-05-06 20:02 | 30.65104 | -88.50214 | 36012 ft | 425 kts | 243° |
| 2026-05-06 20:03 | 30.62033 | -88.56081 | 36020 ft | 425 kts | 243° |
| 2026-05-06 20:03 | 30.58966 | -88.61925 | 36017 ft | 427 kts | 243° |
| 2026-05-06 20:04 | 30.56377 | -88.66850 | 36001 ft | 427 kts | 243° |
| 2026-05-06 20:04 | 30.53286 | -88.72720 | 36004 ft | 426 kts | 243° |
| 2026-05-06 20:05 | 30.50196 | -88.78582 | 35986 ft | 426 kts | 243° |
| 2026-05-06 20:05 | 30.46598 | -88.85397 | 35985 ft | 426 kts | 243° |
| 2026-05-06 20:06 | 30.44002 | -88.90305 | 35978 ft | 426 kts | 243° |
| 2026-05-06 20:06 | 30.40902 | -88.96162 | 35984 ft | 426 kts | 243° |
| 2026-05-06 20:07 | 30.37798 | -89.02015 | 35996 ft | 427 kts | 243° |
| 2026-05-06 20:07 | 30.34687 | -89.07872 | 35999 ft | 427 kts | 243° |
| 2026-05-06 20:08 | 30.31593 | -89.13691 | 36000 ft | 427 kts | 243° |
| 2026-05-06 20:08 | 30.28478 | -89.19538 | 35996 ft | 427 kts | 243° |
| 2026-05-06 20:09 | 30.25336 | -89.25430 | 35988 ft | 427 kts | 243° |
| 2026-05-06 20:09 | 30.22210 | -89.31281 | 35988 ft | 428 kts | 243° |
| 2026-05-06 20:10 | 30.19081 | -89.37130 | 35988 ft | 428 kts | 242° |
| 2026-05-06 20:10 | 30.15966 | -89.42945 | 35985 ft | 428 kts | 242° |
| 2026-05-06 20:11 | 30.12828 | -89.48794 | 35984 ft | 428 kts | 242° |
| 2026-05-06 20:11 | 30.09685 | -89.54643 | 35977 ft | 429 kts | 242° |
| 2026-05-06 20:12 | 30.06535 | -89.60497 | 35978 ft | 429 kts | 242° |
| 2026-05-06 20:12 | 30.03387 | -89.66338 | 35977 ft | 429 kts | 242° |
| 2026-05-06 20:13 | 30.00230 | -89.72189 | 35976 ft | 429 kts | 242° |
| 2026-05-06 20:13 | 29.97074 | -89.78028 | 35975 ft | 429 kts | 242° |
| 2026-05-06 20:14 | 29.93937 | -89.83827 | 35978 ft | 429 kts | 242° |
| 2026-05-06 20:14 | 29.90781 | -89.89652 | 35986 ft | 429 kts | 242° |
| 2026-05-06 20:15 | 29.87620 | -89.95482 | 35993 ft | 428 kts | 243° |
| 2026-05-06 20:15 | 29.85043 | -90.01620 | 35995 ft | 424 kts | 251° |
| 2026-05-06 20:16 | 29.83218 | -90.08045 | 35995 ft | 421 kts | 257° |
| 2026-05-06 20:16 | 29.81778 | -90.14590 | 35995 ft | 422 kts | 257° |
| 2026-05-06 20:17 | 29.80344 | -90.21141 | 35984 ft | 422 kts | 257° |
| 2026-05-06 20:17 | 29.78892 | -90.27680 | 35970 ft | 422 kts | 257° |
| 2026-05-06 20:18 | 29.77424 | -90.34233 | 35966 ft | 422 kts | 257° |
| 2026-05-06 20:18 | 29.75952 | -90.40780 | 35971 ft | 422 kts | 257° |
| 2026-05-06 20:19 | 29.74488 | -90.47275 | 35976 ft | 422 kts | 257° |
| 2026-05-06 20:19 | 29.73011 | -90.53815 | 35980 ft | 422 kts | 257° |
| 2026-05-06 20:20 | 29.71531 | -90.60354 | 35986 ft | 422 kts | 256° |
| 2026-05-06 20:20 | 29.70047 | -90.66894 | 35984 ft | 423 kts | 256° |
| 2026-05-06 20:21 | 29.68561 | -90.73430 | 35986 ft | 422 kts | 256° |
| 2026-05-06 20:21 | 29.66781 | -90.79868 | 35978 ft | 425 kts | 247° |
| 2026-05-06 20:22 | 29.63831 | -90.85778 | 35984 ft | 428 kts | 239° |
| 2026-05-06 20:22 | 29.59976 | -90.90990 | 35977 ft | 433 kts | 232° |
| 2026-05-06 20:23 | 29.55823 | -90.96003 | 35973 ft | 433 kts | 231° |
| 2026-05-06 20:23 | 29.51678 | -91.01013 | 35964 ft | 433 kts | 231° |
| 2026-05-06 20:24 | 29.47553 | -91.06043 | 35959 ft | 432 kts | 231° |
| 2026-05-06 20:24 | 29.43438 | -91.11078 | 35957 ft | 432 kts | 231° |
| 2026-05-06 20:25 | 29.39324 | -91.16113 | 35955 ft | 432 kts | 231° |
| 2026-05-06 20:25 | 29.35211 | -91.21140 | 35950 ft | 432 kts | 231° |
| 2026-05-06 20:26 | 29.31092 | -91.26166 | 35949 ft | 432 kts | 231° |
| 2026-05-06 20:26 | 29.26972 | -91.31186 | 35943 ft | 432 kts | 231° |
| 2026-05-06 20:27 | 29.22849 | -91.36205 | 35941 ft | 432 kts | 231° |
| 2026-05-06 20:27 | 29.18725 | -91.41217 | 35935 ft | 432 kts | 231° |
| 2026-05-06 20:28 | 29.14623 | -91.46197 | 35931 ft | 432 kts | 231° |
| 2026-05-06 20:28 | 29.10493 | -91.51205 | 35924 ft | 432 kts | 231° |
| 2026-05-06 20:29 | 29.06369 | -91.56200 | 35922 ft | 433 kts | 231° |
| 2026-05-06 20:29 | 29.02235 | -91.61200 | 35919 ft | 433 kts | 231° |
| 2026-05-06 20:30 | 28.96026 | -91.68697 | 35919 ft | 433 kts | 231° |
| 2026-05-06 20:31 | 28.91882 | -91.73694 | 35919 ft | 433 kts | 231° |
| 2026-05-06 20:31 | 28.87738 | -91.78684 | 35915 ft | 433 kts | 231° |
| 2026-05-06 20:32 | 28.83595 | -91.83667 | 35912 ft | 433 kts | 230° |
| 2026-05-06 20:32 | 28.79439 | -91.88659 | 35914 ft | 434 kts | 230° |
| 2026-05-06 20:33 | 28.75283 | -91.93646 | 35910 ft | 434 kts | 230° |
| 2026-05-06 20:33 | 28.71124 | -91.98630 | 35910 ft | 434 kts | 230° |
| 2026-05-06 20:34 | 28.66986 | -92.03581 | 35906 ft | 434 kts | 230° |
| 2026-05-06 20:34 | 28.62823 | -92.08558 | 35905 ft | 434 kts | 230° |
| 2026-05-06 20:35 | 28.58650 | -92.13540 | 35906 ft | 434 kts | 230° |
| 2026-05-06 20:35 | 28.54479 | -92.18514 | 35906 ft | 435 kts | 230° |
| 2026-05-06 20:36 | 28.50304 | -92.23486 | 35905 ft | 435 kts | 230° |
| 2026-05-06 20:36 | 28.46121 | -92.28462 | 35906 ft | 435 kts | 230° |
| 2026-05-06 20:37 | 28.41937 | -92.33433 | 35899 ft | 435 kts | 230° |
| 2026-05-06 20:37 | 28.37749 | -92.38403 | 35902 ft | 435 kts | 230° |
| 2026-05-06 20:38 | 28.33561 | -92.43368 | 35900 ft | 436 kts | 230° |
| 2026-05-06 20:38 | 28.29360 | -92.48343 | 35902 ft | 436 kts | 230° |
| 2026-05-06 20:39 | 28.25163 | -92.53305 | 35901 ft | 436 kts | 229° |
| 2026-05-06 20:39 | 28.20956 | -92.58267 | 35899 ft | 436 kts | 229° |
| 2026-05-06 20:40 | 28.16744 | -92.63230 | 35897 ft | 437 kts | 229° |
| 2026-05-06 20:40 | 28.12525 | -92.68199 | 35898 ft | 437 kts | 229° |
| 2026-05-06 20:41 | 28.08306 | -92.73157 | 35895 ft | 437 kts | 229° |
| 2026-05-06 20:41 | 28.04084 | -92.78109 | 35897 ft | 437 kts | 229° |
| 2026-05-06 20:42 | 27.99859 | -92.83061 | 35893 ft | 437 kts | 229° |
| 2026-05-06 20:42 | 27.95660 | -92.87978 | 35893 ft | 438 kts | 229° |
| 2026-05-06 20:43 | 27.91423 | -92.92934 | 35894 ft | 438 kts | 229° |
| 2026-05-06 20:43 | 27.87180 | -92.97892 | 35892 ft | 438 kts | 229° |
| 2026-05-06 20:44 | 27.82944 | -93.02835 | 35892 ft | 438 kts | 229° |
| 2026-05-06 20:44 | 27.78695 | -93.07787 | 35890 ft | 438 kts | 229° |
| 2026-05-06 20:45 | 27.74449 | -93.12732 | 35889 ft | 439 kts | 229° |
| 2026-05-06 20:45 | 27.70196 | -93.17678 | 35886 ft | 439 kts | 229° |
| 2026-05-06 20:46 | 27.65960 | -93.22596 | 35888 ft | 439 kts | 229° |
| 2026-05-06 20:46 | 27.61693 | -93.27544 | 35898 ft | 439 kts | 229° |
| 2026-05-06 20:47 | 27.57430 | -93.32484 | 35893 ft | 439 kts | 229° |
| 2026-05-06 20:47 | 27.53167 | -93.37418 | 35893 ft | 440 kts | 229° |
| 2026-05-06 20:48 | 27.48896 | -93.42356 | 35875 ft | 440 kts | 229° |
| 2026-05-06 20:48 | 27.44622 | -93.47293 | 35881 ft | 440 kts | 228° |
| 2026-05-06 20:49 | 27.40371 | -93.52196 | 35882 ft | 440 kts | 228° |
| 2026-05-06 20:49 | 27.36089 | -93.57129 | 35878 ft | 441 kts | 228° |
| 2026-05-06 20:50 | 27.31806 | -93.62059 | 35885 ft | 441 kts | 228° |
| 2026-05-06 20:50 | 27.27513 | -93.66994 | 35884 ft | 441 kts | 228° |
| 2026-05-06 20:51 | 27.23223 | -93.71920 | 35877 ft | 441 kts | 228° |
| 2026-05-06 20:51 | 27.18927 | -93.76847 | 35878 ft | 441 kts | 228° |
| 2026-05-06 20:52 | 27.14629 | -93.81771 | 35876 ft | 441 kts | 228° |
| 2026-05-06 20:52 | 27.10328 | -93.86693 | 35872 ft | 441 kts | 228° |
| 2026-05-06 20:53 | 27.06022 | -93.91614 | 35880 ft | 442 kts | 228° |
| 2026-05-06 20:53 | 27.02443 | -93.95698 | 35874 ft | 442 kts | 228° |
| 2026-05-06 20:54 | 26.97428 | -94.01418 | 35871 ft | 442 kts | 228° |
| 2026-05-06 20:54 | 26.93119 | -94.06329 | 35868 ft | 442 kts | 228° |
| 2026-05-06 20:55 | 26.89502 | -94.10446 | 35870 ft | 442 kts | 228° |
| 2026-05-06 20:55 | 26.85214 | -94.15322 | 35871 ft | 442 kts | 227° |
| 2026-05-06 20:56 | 26.80882 | -94.20243 | 35871 ft | 443 kts | 227° |
| 2026-05-06 20:56 | 26.76561 | -94.25146 | 35866 ft | 443 kts | 227° |
| 2026-05-06 20:57 | 26.72231 | -94.30052 | 35866 ft | 443 kts | 227° |
| 2026-05-06 20:57 | 26.67887 | -94.34969 | 35864 ft | 443 kts | 227° |
| 2026-05-06 20:58 | 26.63553 | -94.39869 | 35859 ft | 444 kts | 227° |
| 2026-05-06 20:58 | 26.59209 | -94.44774 | 35853 ft | 444 kts | 227° |
| 2026-05-06 20:59 | 26.54862 | -94.49678 | 35855 ft | 444 kts | 227° |
| 2026-05-06 20:59 | 26.50509 | -94.54583 | 35856 ft | 444 kts | 227° |
| 2026-05-06 21:00 | 26.46184 | -94.59451 | 35860 ft | 444 kts | 227° |
| 2026-05-06 21:00 | 26.41805 | -94.64374 | 35853 ft | 445 kts | 227° |
| 2026-05-06 21:01 | 26.37472 | -94.69239 | 35852 ft | 445 kts | 227° |
| 2026-05-06 21:01 | 26.33112 | -94.74130 | 35849 ft | 445 kts | 227° |
| 2026-05-06 21:02 | 26.28741 | -94.79026 | 35847 ft | 445 kts | 227° |
| 2026-05-06 21:02 | 26.24376 | -94.83911 | 35850 ft | 445 kts | 227° |
| 2026-05-06 21:03 | 26.20001 | -94.88802 | 35847 ft | 445 kts | 227° |
| 2026-05-06 21:03 | 26.15627 | -94.93686 | 35846 ft | 446 kts | 227° |
| 2026-05-06 21:04 | 26.11245 | -94.98573 | 35838 ft | 446 kts | 227° |
| 2026-05-06 21:04 | 26.06862 | -95.03456 | 35842 ft | 446 kts | 227° |
| 2026-05-06 21:05 | 26.02509 | -95.08300 | 35846 ft | 446 kts | 227° |
| 2026-05-06 21:05 | 25.98112 | -95.13188 | 36008 ft | 449 kts | 227° |
| 2026-05-06 21:05 | 25.95907 | -95.15637 | 36402 ft | 447 kts | 227° |
| 2026-05-06 21:06 | 25.93716 | -95.18069 | 36851 ft | 444 kts | 227° |
| 2026-05-06 21:06 | 25.91533 | -95.20491 | 37279 ft | 442 kts | 227° |
| 2026-05-06 21:06 | 25.89361 | -95.22898 | 37673 ft | 440 kts | 227° |
| 2026-05-06 21:06 | 25.87190 | -95.25304 | 37855 ft | 442 kts | 227° |
| 2026-05-06 21:07 | 25.85008 | -95.27723 | 37833 ft | 444 kts | 227° |
| 2026-05-06 21:07 | 25.80641 | -95.32555 | 37827 ft | 441 kts | 227° |
| 2026-05-06 21:08 | 25.76310 | -95.37343 | 37827 ft | 438 kts | 227° |
| 2026-05-06 21:08 | 25.72004 | -95.42099 | 37825 ft | 436 kts | 227° |
| 2026-05-06 21:09 | 25.67732 | -95.46814 | 37834 ft | 436 kts | 227° |
| 2026-05-06 21:09 | 25.63328 | -95.51452 | 37832 ft | 438 kts | 222° |
| 2026-05-06 21:10 | 25.58329 | -95.55371 | 37836 ft | 441 kts | 216° |
| 2026-05-06 21:10 | 25.53151 | -95.59070 | 37820 ft | 443 kts | 216° |
| 2026-05-06 21:11 | 25.47976 | -95.62781 | 37824 ft | 444 kts | 216° |
| 2026-05-06 21:11 | 25.42783 | -95.66524 | 37825 ft | 446 kts | 216° |
| 2026-05-06 21:12 | 25.37580 | -95.70277 | 37823 ft | 447 kts | 216° |
| 2026-05-06 21:12 | 25.32375 | -95.74027 | 37822 ft | 447 kts | 216° |
| 2026-05-06 21:13 | 25.27157 | -95.77782 | 37817 ft | 448 kts | 216° |
| 2026-05-06 21:13 | 25.21931 | -95.81539 | 37815 ft | 448 kts | 216° |
| 2026-05-06 21:14 | 25.16703 | -95.85294 | 37817 ft | 448 kts | 216° |
| 2026-05-06 21:14 | 25.11508 | -95.89021 | 37815 ft | 448 kts | 216° |
| 2026-05-06 21:15 | 25.06288 | -95.92763 | 37816 ft | 448 kts | 216° |
| 2026-05-06 21:15 | 25.01055 | -95.96510 | 37810 ft | 448 kts | 216° |
| 2026-05-06 21:16 | 24.95827 | -96.00250 | 37809 ft | 448 kts | 216° |
| 2026-05-06 21:16 | 24.90590 | -96.03989 | 37810 ft | 448 kts | 215° |
| 2026-05-06 21:17 | 24.85351 | -96.07724 | 37805 ft | 449 kts | 215° |
| 2026-05-06 21:17 | 24.80113 | -96.11457 | 37808 ft | 449 kts | 215° |
| 2026-05-06 21:18 | 24.74857 | -96.15200 | 37807 ft | 449 kts | 215° |
| 2026-05-06 21:18 | 24.69607 | -96.18935 | 37802 ft | 450 kts | 215° |
| 2026-05-06 21:19 | 24.64381 | -96.22648 | 37803 ft | 450 kts | 215° |
| 2026-05-06 21:19 | 24.59114 | -96.26389 | 37799 ft | 451 kts | 215° |
| 2026-05-06 21:20 | 24.53842 | -96.30132 | 37800 ft | 451 kts | 215° |
| 2026-05-06 21:20 | 24.48567 | -96.33874 | 37801 ft | 452 kts | 215° |
| 2026-05-06 21:21 | 24.43292 | -96.37613 | 37797 ft | 452 kts | 215° |
| 2026-05-06 21:21 | 24.37998 | -96.41360 | 37798 ft | 452 kts | 215° |
| 2026-05-06 21:22 | 24.32707 | -96.45102 | 37796 ft | 453 kts | 215° |
| 2026-05-06 21:22 | 24.27406 | -96.48847 | 37791 ft | 453 kts | 215° |
| 2026-05-06 21:23 | 24.22103 | -96.52591 | 37789 ft | 453 kts | 215° |
| 2026-05-06 21:23 | 24.16835 | -96.56306 | 37787 ft | 453 kts | 215° |
| 2026-05-06 21:24 | 24.11529 | -96.60044 | 37790 ft | 454 kts | 215° |
| 2026-05-06 21:24 | 24.06215 | -96.63785 | 37795 ft | 454 kts | 215° |
| 2026-05-06 21:25 | 24.00905 | -96.67515 | 37777 ft | 454 kts | 215° |
| 2026-05-06 21:25 | 23.95586 | -96.71247 | 37774 ft | 454 kts | 215° |
| 2026-05-06 21:26 | 23.90258 | -96.74983 | 37773 ft | 454 kts | 215° |
| 2026-05-06 21:26 | 23.84972 | -96.78686 | 37785 ft | 455 kts | 215° |
| 2026-05-06 21:27 | 23.79648 | -96.82414 | 37776 ft | 455 kts | 215° |
| 2026-05-06 21:27 | 23.74324 | -96.86138 | 37766 ft | 455 kts | 214° |
| 2026-05-06 21:28 | 23.68986 | -96.89866 | 37769 ft | 455 kts | 214° |
| 2026-05-06 21:28 | 23.63653 | -96.93582 | 37766 ft | 455 kts | 214° |
| 2026-05-06 21:29 | 23.58308 | -96.97302 | 37771 ft | 455 kts | 214° |
| 2026-05-06 21:29 | 23.52972 | -97.01015 | 37773 ft | 455 kts | 214° |
| 2026-05-06 21:30 | 23.47658 | -97.04709 | 37765 ft | 455 kts | 214° |
| 2026-05-06 21:30 | 23.42313 | -97.08421 | 37767 ft | 456 kts | 214° |
| 2026-05-06 21:31 | 23.36963 | -97.12133 | 37763 ft | 456 kts | 214° |
| 2026-05-06 21:31 | 23.31614 | -97.15842 | 37762 ft | 456 kts | 214° |
| 2026-05-06 21:32 | 23.26274 | -97.19543 | 37756 ft | 456 kts | 214° |
| 2026-05-06 21:32 | 23.18239 | -97.25116 | 37751 ft | 456 kts | 214° |
| 2026-05-06 21:33 | 23.12967 | -97.28937 | 37757 ft | 454 kts | 220° |
| 2026-05-06 21:33 | 23.08393 | -97.33636 | 37751 ft | 452 kts | 230° |
| 2026-05-06 21:34 | 23.04356 | -97.38884 | 37748 ft | 452 kts | 231° |
| 2026-05-06 21:34 | 23.00342 | -97.44149 | 37750 ft | 453 kts | 231° |
| 2026-05-06 21:35 | 22.96312 | -97.49398 | 37743 ft | 453 kts | 231° |
| 2026-05-06 21:35 | 22.92266 | -97.54640 | 37748 ft | 453 kts | 231° |
| 2026-05-06 21:36 | 22.88240 | -97.59843 | 37740 ft | 453 kts | 230° |
| 2026-05-06 21:36 | 22.84161 | -97.65110 | 37742 ft | 453 kts | 230° |
| 2026-05-06 21:37 | 22.80145 | -97.70289 | 37735 ft | 453 kts | 230° |
| 2026-05-06 21:37 | 22.76090 | -97.75516 | 37736 ft | 452 kts | 230° |
| 2026-05-06 21:38 | 22.72034 | -97.80737 | 37737 ft | 452 kts | 230° |
| 2026-05-06 21:38 | 22.67983 | -97.85948 | 37729 ft | 452 kts | 230° |
| 2026-05-06 21:39 | 22.63930 | -97.91155 | 37728 ft | 452 kts | 230° |
| 2026-05-06 21:39 | 22.59885 | -97.96348 | 37725 ft | 451 kts | 230° |
| 2026-05-06 21:40 | 22.55834 | -98.01542 | 37718 ft | 451 kts | 230° |
| 2026-05-06 21:40 | 22.51788 | -98.06726 | 37721 ft | 451 kts | 230° |
| 2026-05-06 21:41 | 22.47739 | -98.11907 | 37713 ft | 451 kts | 230° |
| 2026-05-06 21:41 | 22.44365 | -98.16221 | 37710 ft | 451 kts | 230° |
| 2026-05-06 21:42 | 22.39656 | -98.22236 | 37704 ft | 451 kts | 230° |
| 2026-05-06 21:42 | 22.35593 | -98.27420 | 37697 ft | 451 kts | 230° |
| 2026-05-06 21:43 | 22.32197 | -98.31750 | 37689 ft | 451 kts | 230° |
| 2026-05-06 21:43 | 22.28132 | -98.36926 | 37685 ft | 451 kts | 230° |
| 2026-05-06 21:44 | 22.24090 | -98.42069 | 37681 ft | 452 kts | 230° |
| 2026-05-06 21:44 | 22.20025 | -98.47237 | 37678 ft | 452 kts | 230° |
| 2026-05-06 21:45 | 22.15949 | -98.52413 | 37671 ft | 452 kts | 230° |
| 2026-05-06 21:45 | 22.11878 | -98.57577 | 37671 ft | 452 kts | 230° |
| 2026-05-06 21:46 | 22.07799 | -98.62747 | 37671 ft | 452 kts | 230° |
| 2026-05-06 21:46 | 22.03723 | -98.67908 | 37666 ft | 453 kts | 230° |
| 2026-05-06 21:47 | 21.99629 | -98.73087 | 37671 ft | 453 kts | 230° |
| 2026-05-06 21:47 | 21.95571 | -98.78216 | 37672 ft | 453 kts | 230° |
| 2026-05-06 21:48 | 21.91474 | -98.83388 | 37672 ft | 453 kts | 230° |
| 2026-05-06 21:48 | 21.87380 | -98.88553 | 37674 ft | 453 kts | 230° |
| 2026-05-06 21:49 | 21.83282 | -98.93716 | 37687 ft | 453 kts | 230° |
| 2026-05-06 21:49 | 21.79185 | -98.98874 | 37688 ft | 454 kts | 230° |
| 2026-05-06 21:50 | 21.75083 | -99.04034 | 37705 ft | 453 kts | 230° |
| 2026-05-06 21:50 | 21.70984 | -99.09184 | 37703 ft | 453 kts | 230° |
| 2026-05-06 21:51 | 21.66877 | -99.14341 | 37716 ft | 453 kts | 230° |
| 2026-05-06 21:51 | 21.62777 | -99.19484 | 37721 ft | 453 kts | 230° |
| 2026-05-06 21:52 | 21.58676 | -99.24623 | 37732 ft | 453 kts | 230° |
| 2026-05-06 21:52 | 21.54369 | -99.29578 | 37738 ft | 454 kts | 223° |
| 2026-05-06 21:53 | 21.49689 | -99.34082 | 37741 ft | 454 kts | 223° |
| 2026-05-06 21:53 | 21.44943 | -99.38558 | 37735 ft | 455 kts | 217° |
| 2026-05-06 21:54 | 21.39334 | -99.41717 | 37747 ft | 458 kts | 202° |
| 2026-05-06 21:54 | 21.33130 | -99.43357 | 37752 ft | 461 kts | 193° |
| 2026-05-06 21:55 | 21.26801 | -99.44584 | 37305 ft | 469 kts | 193° |
| 2026-05-06 21:55 | 21.23576 | -99.45215 | 36610 ft | 472 kts | 193° |
| 2026-05-06 21:55 | 21.20349 | -99.45857 | 35894 ft | 470 kts | 193° |
| 2026-05-06 21:56 | 21.17136 | -99.46508 | 35127 ft | 470 kts | 193° |
| 2026-05-06 21:56 | 21.13919 | -99.47169 | 34298 ft | 472 kts | 193° |
| 2026-05-06 21:56 | 21.10688 | -99.47838 | 33383 ft | 474 kts | 193° |
| 2026-05-06 21:56 | 21.07446 | -99.48510 | 32444 ft | 476 kts | 193° |
| 2026-05-06 21:57 | 21.04202 | -99.49181 | 31801 ft | 471 kts | 193° |
| 2026-05-06 21:57 | 21.01000 | -99.49843 | 31178 ft | 467 kts | 193° |
| 2026-05-06 21:57 | 20.97827 | -99.50498 | 30563 ft | 464 kts | 192° |
| 2026-05-06 21:57 | 20.94657 | -99.51152 | 29950 ft | 461 kts | 192° |
| 2026-05-06 21:58 | 20.91530 | -99.51796 | 29248 ft | 457 kts | 192° |
| 2026-05-06 21:58 | 20.88415 | -99.52438 | 28615 ft | 453 kts | 192° |
| 2026-05-06 21:58 | 20.85338 | -99.53072 | 27991 ft | 449 kts | 192° |
| 2026-05-06 21:58 | 20.82315 | -99.53695 | 27392 ft | 445 kts | 192° |
| 2026-05-06 21:59 | 20.79281 | -99.54320 | 26793 ft | 441 kts | 192° |
| 2026-05-06 21:59 | 20.76283 | -99.54937 | 26217 ft | 437 kts | 192° |
| 2026-05-06 21:59 | 20.73305 | -99.55549 | 25637 ft | 434 kts | 192° |
| 2026-05-06 21:59 | 20.70360 | -99.56155 | 25065 ft | 430 kts | 192° |
| 2026-05-06 22:00 | 20.67457 | -99.56751 | 24953 ft | 416 kts | 192° |
| 2026-05-06 22:00 | 20.64635 | -99.57331 | 24946 ft | 413 kts | 192° |
| 2026-05-06 22:00 | 20.61773 | -99.57919 | 24928 ft | 426 kts | 192° |
| 2026-05-06 22:00 | 20.58827 | -99.58524 | 24608 ft | 433 kts | 192° |
| 2026-05-06 22:01 | 20.55879 | -99.59130 | 24180 ft | 428 kts | 192° |
| 2026-05-06 22:01 | 20.52972 | -99.59726 | 23769 ft | 421 kts | 192° |
| 2026-05-06 22:01 | 20.50114 | -99.60311 | 23362 ft | 416 kts | 191° |
| 2026-05-06 22:01 | 20.47288 | -99.60891 | 22837 ft | 411 kts | 191° |
| 2026-05-06 22:02 | 20.44518 | -99.61459 | 22251 ft | 409 kts | 191° |
| 2026-05-06 22:02 | 20.41694 | -99.62037 | 21642 ft | 407 kts | 191° |
| 2026-05-06 22:02 | 20.38905 | -99.62326 | 20934 ft | 405 kts | 176° |
| 2026-05-06 22:02 | 20.36172 | -99.61629 | 20285 ft | 408 kts | 158° |
| 2026-05-06 22:03 | 20.33725 | -99.60181 | 19728 ft | 408 kts | 145° |
| 2026-05-06 22:03 | 20.31500 | -99.58278 | 19316 ft | 401 kts | 141° |
| 2026-05-06 22:03 | 20.29368 | -99.56409 | 18984 ft | 394 kts | 142° |
| 2026-05-06 22:03 | 20.27292 | -99.54592 | 18650 ft | 388 kts | 142° |
| 2026-05-06 22:04 | 20.25216 | -99.52784 | 18315 ft | 383 kts | 142° |
| 2026-05-06 22:04 | 20.23151 | -99.50995 | 17965 ft | 382 kts | 142° |
| 2026-05-06 22:04 | 20.21082 | -99.49213 | 17598 ft | 385 kts | 142° |
| 2026-05-06 22:04 | 20.18992 | -99.47418 | 17222 ft | 385 kts | 142° |
| 2026-05-06 22:05 | 20.16906 | -99.45629 | 16854 ft | 384 kts | 142° |
| 2026-05-06 22:05 | 20.14836 | -99.43855 | 16487 ft | 381 kts | 142° |
| 2026-05-06 22:05 | 20.12781 | -99.42095 | 16119 ft | 378 kts | 142° |
| 2026-05-06 22:05 | 20.10728 | -99.40341 | 15800 ft | 378 kts | 142° |
| 2026-05-06 22:06 | 20.08684 | -99.38595 | 15377 ft | 378 kts | 142° |
| 2026-05-06 22:06 | 20.06634 | -99.36842 | 14900 ft | 376 kts | 142° |
| 2026-05-06 22:06 | 20.04603 | -99.35105 | 14405 ft | 374 kts | 142° |
| 2026-05-06 22:06 | 20.02579 | -99.33374 | 13903 ft | 373 kts | 142° |
| 2026-05-06 22:07 | 20.00798 | -99.31852 | 13463 ft | 371 kts | 141° |
| 2026-05-06 22:07 | 19.98821 | -99.30162 | 13286 ft | 359 kts | 141° |
| 2026-05-06 22:07 | 19.96905 | -99.28526 | 13145 ft | 347 kts | 141° |
| 2026-05-06 22:07 | 19.95052 | -99.26945 | 13024 ft | 335 kts | 141° |
| 2026-05-06 22:08 | 19.93295 | -99.25446 | 12869 ft | 310 kts | 141° |
| 2026-05-06 22:08 | 19.91688 | -99.24077 | 12774 ft | 281 kts | 141° |
| 2026-05-06 22:08 | 19.90139 | -99.22959 | 12722 ft | 262 kts | 157° |
| 2026-05-06 22:08 | 19.88393 | -99.22538 | 12532 ft | 263 kts | 174° |
| 2026-05-06 22:09 | 19.86546 | -99.22369 | 12306 ft | 263 kts | 173° |
| 2026-05-06 22:09 | 19.84725 | -99.22187 | 12094 ft | 262 kts | 173° |
| 2026-05-06 22:09 | 19.82914 | -99.21997 | 11883 ft | 260 kts | 173° |
| 2026-05-06 22:09 | 19.81126 | -99.21809 | 11654 ft | 256 kts | 173° |
| 2026-05-06 22:10 | 19.79373 | -99.21624 | 11442 ft | 256 kts | 173° |
| 2026-05-06 22:10 | 19.77603 | -99.21436 | 11230 ft | 255 kts | 172° |
| 2026-05-06 22:10 | 19.75839 | -99.21247 | 11006 ft | 255 kts | 172° |
| 2026-05-06 22:10 | 19.74084 | -99.21061 | 10812 ft | 255 kts | 173° |
| 2026-05-06 22:11 | 19.72312 | -99.20872 | 10576 ft | 256 kts | 172° |
| 2026-05-06 22:11 | 19.70540 | -99.20686 | 10367 ft | 256 kts | 172° |
| 2026-05-06 22:11 | 19.68796 | -99.20399 | 10136 ft | 249 kts | 156° |
| 2026-05-06 22:11 | 19.67289 | -99.19544 | 9990 ft | 244 kts | 146° |
| 2026-05-06 22:12 | 19.66035 | -99.18390 | 9693 ft | 239 kts | 121° |
| 2026-05-06 22:12 | 19.65508 | -99.16763 | 9557 ft | 233 kts | 94° |
| 2026-05-06 22:12 | 19.65605 | -99.15090 | 9352 ft | 223 kts | 79° |
| 2026-05-06 22:12 | 19.65976 | -99.13542 | 9147 ft | 212 kts | 63° |
| 2026-05-06 22:13 | 19.66764 | -99.12276 | 9028 ft | 201 kts | 55° |
| 2026-05-06 22:13 | 19.67581 | -99.11122 | 8925 ft | 190 kts | 51° |
| 2026-05-06 22:13 | 19.68422 | -99.10071 | 8884 ft | 189 kts | 49° |
| 2026-05-06 22:13 | 19.69293 | -99.09006 | 8768 ft | 191 kts | 48° |
| 2026-05-06 22:14 | 19.70157 | -99.07971 | 8615 ft | 184 kts | 48° |
| 2026-05-06 22:14 | 19.70953 | -99.06971 | 8352 ft | 167 kts | 47° |
| 2026-05-06 22:14 | 19.71669 | -99.06084 | 8085 ft | 150 kts | 43° |
| 2026-05-06 22:14 | 19.72338 | -99.05275 | 7748 ft | 146 kts | 44° |
| 2026-05-06 22:15 | 19.73045 | -99.04409 | 7581 ft | 158 kts | 45° |
| 2026-05-06 22:15 | 19.73742 | -99.03560 | 7392 ft | 147 kts | 46° |
| 2026-05-06 22:15 | 19.74358 | -99.02813 | 7381 ft | 119 kts | 48° |
| 2026-05-06 22:15 | 19.74819 | -99.02245 | 7379 ft | 84 kts | 49° |
| 2026-05-06 22:16 | 19.75119 | -99.01878 | 7381 ft | 48 kts | 49° |
| 2026-05-06 22:16 | 19.75265 | -99.01701 | 7381 ft | 23 kts | 49° |
| 2026-05-06 22:16 | 19.75365 | -99.01577 | 7380 ft | 14 kts | 49° |
| 2026-05-06 22:16 | 19.75403 | -99.01515 | 7379 ft | 9 kts | 76° |
| 2026-05-06 22:17 | 19.75380 | -99.01458 | 7380 ft | 9 kts | 135° |
| 2026-05-06 22:17 | 19.75334 | -99.01414 | 7380 ft | 9 kts | 138° |
| 2026-05-06 22:17 | 19.75288 | -99.01371 | 7381 ft | 9 kts | 138° |
| 2026-05-06 22:17 | 19.75270 | -99.01312 | 7382 ft | 9 kts | 82° |
| 2026-05-06 22:18 | 19.75301 | -99.01257 | 7381 ft | 9 kts | 51° |
| 2026-05-06 22:18 | 19.75341 | -99.01207 | 7382 ft | 9 kts | 48° |
| 2026-05-06 22:18 | 19.75383 | -99.01158 | 7381 ft | 9 kts | 48° |
| 2026-05-06 22:18 | 19.75423 | -99.01110 | 7381 ft | 9 kts | 48° |
| 2026-05-06 22:19 | 19.75463 | -99.01061 | 7380 ft | 9 kts | 49° |
| 2026-05-06 22:19 | 19.75504 | -99.01011 | 7381 ft | 9 kts | 49° |
| 2026-05-06 22:19 | 19.75545 | -99.00962 | 7382 ft | 9 kts | 49° |
| 2026-05-06 22:19 | 19.75585 | -99.00912 | 7382 ft | 9 kts | 49° |
| 2026-05-06 22:20 | 19.75604 | -99.00854 | 7382 ft | 9 kts | 105° |
| 2026-05-06 22:20 | 19.75588 | -99.00792 | 7382 ft | 9 kts | 83° |
| 2026-05-06 22:20 | 19.75622 | -99.00736 | 7382 ft | 9 kts | 50° |
| 2026-05-06 22:20 | 19.75656 | -99.00682 | 7382 ft | 9 kts | 81° |
| 2026-05-06 22:21 | 19.75620 | -99.00628 | 7382 ft | 6 kts | 139° |
| 2026-05-06 22:21 | 19.75595 | -99.00606 | 7382 ft | 4 kts | 141° |
| 2026-05-06 22:21 | 19.75593 | -99.00605 | 7382 ft | 0 kts | 140° |